createdAt,value
2018-03-06T00:01:44.629Z,56.83
2018-03-06T00:04:11.077Z,60.70
2018-03-06T00:06:37.770Z,54.03
2018-03-06T00:09:04.250Z,58.47
2018-03-06T00:11:30.713Z,68.27
2018-03-06T00:13:57.174Z,69.40
2018-03-06T00:16:23.573Z,66.57
2018-03-06T00:18:49.988Z,75.87
2018-03-06T00:21:16.498Z,74.80
2018-03-06T00:23:42.901Z,58.87
2018-03-06T00:26:09.294Z,59.43
2018-03-06T00:28:35.743Z,53.63
2018-03-06T00:31:02.136Z,53.93
2018-03-06T00:33:28.513Z,58.60
2018-03-06T00:35:54.938Z,55.83
2018-03-06T00:38:21.328Z,60.60
2018-03-06T00:40:47.703Z,59.93
2018-03-06T00:43:14.107Z,64.30
2018-03-06T00:45:40.593Z,66.03
2018-03-06T00:48:06.965Z,69.50
2018-03-06T00:50:33.311Z,67.87
2018-03-06T00:52:59.698Z,63.50
2018-03-06T00:55:26.055Z,60.20
2018-03-06T00:57:52.430Z,60.17
2018-03-06T01:00:18.822Z,61.20
2018-03-06T01:02:45.225Z,65.03
2018-03-06T01:05:11.670Z,56.73
2018-03-06T01:07:38.033Z,64.63
2018-03-06T01:10:04.510Z,57.77
2018-03-06T01:12:31.060Z,57.30
2018-03-06T01:14:57.461Z,57.40
2018-03-06T01:17:23.893Z,55.60
2018-03-06T01:19:50.280Z,52.70
2018-03-06T01:22:16.658Z,53.23
2018-03-06T01:24:43.022Z,52.23
2018-03-06T01:27:09.425Z,62.13
2018-03-06T01:29:35.880Z,74.50
2018-03-06T01:32:02.333Z,71.77
2018-03-06T01:34:28.741Z,69.23
2018-03-06T01:36:55.141Z,84.67
2018-03-06T01:39:21.485Z,94.20
2018-03-06T01:41:47.897Z,114.67
2018-03-06T01:44:14.285Z,105.00
2018-03-06T01:46:40.666Z,105.07
2018-03-06T01:49:07.117Z,85.20
2018-03-06T01:51:45.774Z,78.77
2018-03-06T01:54:12.305Z,74.60
2018-03-06T01:56:38.698Z,58.50
2018-03-06T01:59:05.058Z,56.57
2018-03-06T02:01:31.514Z,41.67
2018-03-06T02:03:57.974Z,32.40
2018-03-06T02:06:24.402Z,29.67
2018-03-06T02:08:50.822Z,24.13
2018-03-06T02:11:17.225Z,25.13
2018-03-06T02:13:43.641Z,23.63
2018-03-06T02:16:10.091Z,25.43
2018-03-06T02:18:36.494Z,27.63
2018-03-06T02:21:02.890Z,21.93
2018-03-06T02:23:29.347Z,22.17
2018-03-06T02:25:55.809Z,24.97
2018-03-06T02:28:22.157Z,24.07
2018-03-06T02:30:48.646Z,19.70
2018-03-06T02:33:15.102Z,21.93
2018-03-06T02:35:41.478Z,21.87
2018-03-06T02:38:08.026Z,19.60
2018-03-06T02:40:34.427Z,19.03
2018-03-06T02:43:00.836Z,16.73
2018-03-06T02:45:27.335Z,18.77
2018-03-06T02:47:53.745Z,17.50
2018-03-06T02:50:20.133Z,17.73
2018-03-06T02:52:46.534Z,19.87
2018-03-06T02:55:12.922Z,19.17
2018-03-06T02:57:39.389Z,17.83
2018-03-06T03:00:05.877Z,18.53
2018-03-06T03:02:32.294Z,17.30
2018-03-06T03:04:58.642Z,18.27
2018-03-06T03:07:25.118Z,20.93
2018-03-06T03:09:51.501Z,21.60
2018-03-06T03:12:17.926Z,22.70
2018-03-06T03:14:44.367Z,22.13
2018-03-06T03:17:10.817Z,22.83
2018-03-06T03:19:37.240Z,22.10
2018-03-06T03:22:03.709Z,24.03
2018-03-06T03:24:30.206Z,17.70
2018-03-06T03:26:56.593Z,15.53
2018-03-06T03:29:23.017Z,16.10
2018-03-06T03:31:49.434Z,15.93
2018-03-06T03:34:15.817Z,13.93
2018-03-06T03:36:42.266Z,16.83
2018-03-06T03:39:08.672Z,15.07
2018-03-06T03:41:35.113Z,17.73
2018-03-06T03:44:01.582Z,16.70
2018-03-06T03:46:28.076Z,18.80
2018-03-06T03:48:54.497Z,19.27
2018-03-06T03:51:21.143Z,20.27
2018-03-06T03:53:47.519Z,18.53
2018-03-06T03:56:13.922Z,23.23
2018-03-06T03:58:40.378Z,20.83
2018-03-06T04:01:06.729Z,20.93
2018-03-06T04:03:33.109Z,18.87
2018-03-06T04:05:59.704Z,22.33
2018-03-06T04:08:26.110Z,23.60
2018-03-06T04:10:52.605Z,21.80
2018-03-06T04:13:19.101Z,21.00
2018-03-06T04:15:45.530Z,21.27
2018-03-06T04:18:11.960Z,20.37
2018-03-06T04:20:38.353Z,21.17
2018-03-06T04:23:04.778Z,23.30
2018-03-06T04:25:31.178Z,21.03
2018-03-06T04:27:57.757Z,19.27
2018-03-06T04:30:24.158Z,20.60
2018-03-06T04:32:50.619Z,23.27
2018-03-06T04:35:17.065Z,16.50
2018-03-06T04:37:43.438Z,21.37
2018-03-06T04:40:09.914Z,23.87
2018-03-06T04:42:36.293Z,22.77
2018-03-06T04:45:02.800Z,24.13
2018-03-06T04:47:29.205Z,25.80
2018-03-06T04:49:55.574Z,24.70
2018-03-06T04:52:21.981Z,22.57
2018-03-06T04:54:48.397Z,24.90
2018-03-06T04:57:14.801Z,27.30
2018-03-06T04:59:41.150Z,27.10
2018-03-06T05:02:07.531Z,33.93
2018-03-06T05:04:33.917Z,30.30
2018-03-06T05:07:00.420Z,33.57
2018-03-06T05:09:27.069Z,38.33
2018-03-06T05:11:53.497Z,32.47
2018-03-06T05:14:19.897Z,33.50
2018-03-06T05:16:46.323Z,35.03
2018-03-06T05:19:12.793Z,32.80
2018-03-06T05:21:39.206Z,29.50
2018-03-06T05:24:05.611Z,32.77
2018-03-06T05:26:32.041Z,31.13
2018-03-06T05:28:58.462Z,33.97
2018-03-06T05:31:24.977Z,38.30
2018-03-06T05:33:51.372Z,40.73
2018-03-06T05:36:17.809Z,37.20
2018-03-06T05:38:44.234Z,39.30
2018-03-06T05:41:10.578Z,40.67
2018-03-06T05:43:36.949Z,39.67
2018-03-06T05:46:03.393Z,40.30
2018-03-06T05:48:29.893Z,45.10
2018-03-06T05:50:56.434Z,47.47
2018-03-06T05:53:22.856Z,44.63
2018-03-06T05:55:49.293Z,48.70
2018-03-06T05:58:16.633Z,86.33
2018-03-06T06:00:43.057Z,64.60
2018-03-06T06:03:09.474Z,49.30
2018-03-06T06:05:35.897Z,45.57
2018-03-06T06:08:02.315Z,56.53
2018-03-06T06:10:28.754Z,55.93
2018-03-06T06:12:55.144Z,47.67
2018-03-06T06:15:21.558Z,46.27
2018-03-06T06:17:48.068Z,45.30
2018-03-06T06:20:14.646Z,38.77
2018-03-06T06:22:41.038Z,37.27
2018-03-06T06:25:07.405Z,46.57
2018-03-06T06:27:33.844Z,43.67
2018-03-06T06:30:00.342Z,50.90
2018-03-06T06:32:26.727Z,43.17
2018-03-06T06:34:53.125Z,49.27
2018-03-06T06:37:19.562Z,60.23
2018-03-06T06:39:45.933Z,62.10
2018-03-06T06:42:12.358Z,68.57
2018-03-06T06:44:38.779Z,75.60
2018-03-06T06:47:05.186Z,64.17
2018-03-06T06:49:31.662Z,49.43
2018-03-06T06:51:58.034Z,57.20
2018-03-06T06:54:24.420Z,55.97
2018-03-06T06:56:50.841Z,61.03
2018-03-06T06:59:17.177Z,60.40
2018-03-06T07:01:43.581Z,54.03
2018-03-06T07:04:09.941Z,52.47
2018-03-06T07:06:36.350Z,46.40
2018-03-06T07:09:02.862Z,52.80
2018-03-06T07:11:29.449Z,51.50
2018-03-06T07:13:55.852Z,59.97
2018-03-06T07:16:22.341Z,60.57
2018-03-06T07:18:48.817Z,46.47
2018-03-06T07:21:15.324Z,47.53
2018-03-06T07:23:41.826Z,49.37
2018-03-06T07:26:08.207Z,50.13
2018-03-06T07:28:34.654Z,69.47
2018-03-06T07:31:01.045Z,54.57
2018-03-06T07:33:27.446Z,55.53
2018-03-06T07:35:53.939Z,59.97
2018-03-06T07:38:20.346Z,49.03
2018-03-06T07:40:46.729Z,50.07
2018-03-06T07:43:13.176Z,59.23
2018-03-06T07:45:39.630Z,55.80
2018-03-06T07:48:06.169Z,51.27
2018-03-06T07:50:32.679Z,38.80
2018-03-06T07:52:59.089Z,44.73
2018-03-06T07:55:25.576Z,39.33
2018-03-06T07:57:51.945Z,39.93
2018-03-06T08:00:18.342Z,42.40
2018-03-06T08:02:44.899Z,41.50
2018-03-06T08:05:11.381Z,43.50
2018-03-06T08:07:37.789Z,39.77
2018-03-06T08:10:04.259Z,39.67
2018-03-06T08:12:30.766Z,45.47
2018-03-06T08:14:57.112Z,44.13
2018-03-06T08:17:23.547Z,45.17
2018-03-06T08:19:49.939Z,46.23
2018-03-06T08:22:16.322Z,42.53
2018-03-06T08:24:42.845Z,43.00
2018-03-06T08:27:09.212Z,38.13
2018-03-06T08:29:35.589Z,44.20
2018-03-06T08:32:02.165Z,40.00
2018-03-06T08:34:28.533Z,43.57
2018-03-06T08:36:54.942Z,38.10
2018-03-06T08:39:21.403Z,42.00
2018-03-06T08:41:47.833Z,38.00
2018-03-06T08:44:14.290Z,36.23
2018-03-06T08:46:40.745Z,37.27
2018-03-06T08:49:07.162Z,35.30
2018-03-06T08:51:33.547Z,36.13
2018-03-06T08:54:00.166Z,37.57
2018-03-06T08:56:26.583Z,38.20
2018-03-06T08:58:52.973Z,33.87
2018-03-06T09:01:19.494Z,36.77
2018-03-06T09:03:45.910Z,36.37
2018-03-06T09:06:12.295Z,37.77
2018-03-06T09:08:38.826Z,35.83
2018-03-06T09:11:05.237Z,35.10
2018-03-06T09:13:31.592Z,32.67
2018-03-06T09:15:58.034Z,29.17
2018-03-06T09:18:25.309Z,34.90
2018-03-06T09:20:51.658Z,35.90
2018-03-06T09:23:18.185Z,32.77
2018-03-06T09:25:44.588Z,31.93
2018-03-06T09:28:11.032Z,31.53
2018-03-06T09:30:37.411Z,29.70
2018-03-06T09:33:03.797Z,31.33
2018-03-06T09:35:30.254Z,32.27
2018-03-06T09:37:56.649Z,30.50
2018-03-06T09:40:23.042Z,27.80
2018-03-06T09:42:49.419Z,24.60
2018-03-06T09:45:15.801Z,26.30
2018-03-06T09:47:42.270Z,27.40
2018-03-06T09:50:08.631Z,25.73
2018-03-06T09:52:34.986Z,24.40
2018-03-06T09:55:01.446Z,27.20
2018-03-06T09:57:27.853Z,26.23
2018-03-06T09:59:54.247Z,24.50
2018-03-06T10:02:20.690Z,30.30
2018-03-06T10:04:47.025Z,30.20
2018-03-06T10:07:13.437Z,38.00
2018-03-06T10:09:39.989Z,27.07
2018-03-06T10:12:06.383Z,23.47
2018-03-06T10:14:32.751Z,27.33
2018-03-06T10:16:59.231Z,25.67
2018-03-06T10:19:25.598Z,21.27
2018-03-06T10:21:51.969Z,24.50
2018-03-06T10:24:18.437Z,27.67
2018-03-06T10:26:44.884Z,25.07
2018-03-06T10:29:11.269Z,26.03
2018-03-06T10:31:37.729Z,33.67
2018-03-06T10:34:04.078Z,22.57
2018-03-06T10:36:30.610Z,24.87
2018-03-06T10:38:57.041Z,27.50
2018-03-06T10:41:23.498Z,24.60
2018-03-06T10:43:49.855Z,23.87
2018-03-06T10:46:16.593Z,21.53
2018-03-06T10:48:43.409Z,24.97
2018-03-06T10:51:09.746Z,20.03
2018-03-06T10:53:36.177Z,21.93
2018-03-06T10:56:02.607Z,21.30
2018-03-06T10:58:29.125Z,24.07
2018-03-06T11:00:55.600Z,23.10
2018-03-06T11:03:22.135Z,23.97
2018-03-06T11:05:48.568Z,22.13
2018-03-06T11:08:15.202Z,24.33
2018-03-06T11:10:41.569Z,27.03
2018-03-06T11:13:07.970Z,21.83
2018-03-06T11:15:34.471Z,22.10
2018-03-06T11:18:00.923Z,21.97
2018-03-06T11:20:27.381Z,22.60
2018-03-06T11:22:53.858Z,29.97
2018-03-06T11:25:20.222Z,26.80
2018-03-06T11:27:46.673Z,28.97
2018-03-06T11:30:13.066Z,22.73
2018-03-06T11:32:39.679Z,24.67
2018-03-06T11:35:06.085Z,25.70
2018-03-06T11:37:32.493Z,27.70
2018-03-06T11:39:58.981Z,24.83
2018-03-06T11:42:26.236Z,25.87
2018-03-06T11:44:52.991Z,23.77
2018-03-06T11:47:19.402Z,32.80
2018-03-06T11:49:45.942Z,32.37
2018-03-06T11:52:12.498Z,30.97
2018-03-06T11:54:38.955Z,23.33
2018-03-06T11:57:05.356Z,28.00
2018-03-06T11:59:31.969Z,27.30
2018-03-06T12:01:58.418Z,24.17
2018-03-06T12:04:24.889Z,22.83
2018-03-06T12:06:51.281Z,23.17
2018-03-06T12:09:17.729Z,24.00
2018-03-06T12:11:44.219Z,24.03
2018-03-06T12:14:10.620Z,24.90
2018-03-06T12:16:37.000Z,28.97
2018-03-06T12:19:03.470Z,40.33
2018-03-06T12:21:29.907Z,28.90
2018-03-06T12:23:56.317Z,23.87
2018-03-06T12:26:22.749Z,28.77
2018-03-06T12:28:49.227Z,25.17
2018-03-06T12:31:15.693Z,27.67
2018-03-06T12:33:42.098Z,23.50
2018-03-06T12:36:08.546Z,26.17
2018-03-06T12:38:35.014Z,23.37
2018-03-06T12:41:01.354Z,30.90
2018-03-06T12:43:27.821Z,26.87
2018-03-06T12:45:54.297Z,33.93
2018-03-06T12:48:20.730Z,27.57
2018-03-06T12:50:47.129Z,27.63
2018-03-06T12:53:13.494Z,29.60
2018-03-06T12:55:39.850Z,31.90
2018-03-06T12:58:06.273Z,27.40
2018-03-06T13:00:32.879Z,29.03
2018-03-06T13:02:59.290Z,28.43
2018-03-06T13:05:25.747Z,30.27
2018-03-06T13:07:52.238Z,28.77
2018-03-06T13:10:18.587Z,34.00
2018-03-06T13:12:45.621Z,26.23
2018-03-06T13:15:12.022Z,23.53
2018-03-06T13:17:38.513Z,22.10
2018-03-06T13:20:04.894Z,25.43
2018-03-06T13:22:31.278Z,24.53
2018-03-06T13:24:57.795Z,23.57
2018-03-06T13:27:24.230Z,25.97
2018-03-06T13:29:50.645Z,32.43
2018-03-06T13:32:17.100Z,27.07
2018-03-06T13:34:43.481Z,26.63
2018-03-06T13:37:09.869Z,26.03
2018-03-06T13:39:36.306Z,22.43
2018-03-06T13:42:02.785Z,25.53
2018-03-06T13:44:29.134Z,23.27
2018-03-06T13:46:55.522Z,24.97
2018-03-06T13:49:22.010Z,29.77
2018-03-06T13:51:48.510Z,26.83
2018-03-06T13:54:14.885Z,24.27
2018-03-06T13:56:41.345Z,26.80
2018-03-06T13:59:07.787Z,25.73
2018-03-06T14:01:34.181Z,20.47
2018-03-06T14:04:00.557Z,27.60
2018-03-06T14:06:26.917Z,26.37
2018-03-06T14:08:53.293Z,24.97
2018-03-06T14:11:19.669Z,21.27
2018-03-06T14:13:46.083Z,27.47
2018-03-06T14:16:12.460Z,31.00
2018-03-06T14:18:38.850Z,28.57
2018-03-06T14:21:05.298Z,32.97
2018-03-06T14:23:31.663Z,27.93
2018-03-06T14:25:58.018Z,26.57
2018-03-06T14:28:24.433Z,27.93
2018-03-06T14:30:50.793Z,25.37
2018-03-06T14:33:17.297Z,27.13
2018-03-06T14:35:43.701Z,22.87
2018-03-06T14:38:10.107Z,32.23
2018-03-06T14:40:36.521Z,24.97
2018-03-06T14:43:02.918Z,34.37
2018-03-06T14:45:29.345Z,34.60
2018-03-06T14:47:55.915Z,29.67
2018-03-06T14:50:22.568Z,33.10
2018-03-06T14:52:49.060Z,36.17
2018-03-06T14:55:15.655Z,31.17
2018-03-06T14:57:42.041Z,37.10
2018-03-06T15:00:08.658Z,31.77
2018-03-06T15:02:35.258Z,31.03
2018-03-06T15:05:01.634Z,29.20
2018-03-06T15:07:28.093Z,28.13
2018-03-06T15:09:54.542Z,28.40
2018-03-06T15:12:20.910Z,29.67
2018-03-06T15:14:47.324Z,42.40
2018-03-06T15:17:13.709Z,54.53
2018-03-06T15:19:40.353Z,56.30
2018-03-06T15:22:06.701Z,63.63
2018-03-06T15:24:33.160Z,61.97
2018-03-06T15:26:59.694Z,40.23
2018-03-06T15:29:26.157Z,40.20
2018-03-06T15:31:52.517Z,42.40
2018-03-06T15:34:18.917Z,56.77
2018-03-06T15:36:45.277Z,82.47
2018-03-06T15:39:11.737Z,80.17
2018-03-06T15:41:38.183Z,79.83
2018-03-06T15:44:04.557Z,89.13
2018-03-06T15:46:31.030Z,92.30
2018-03-06T15:48:57.498Z,105.97
2018-03-06T15:51:23.958Z,101.13
2018-03-06T15:53:50.334Z,111.87
2018-03-06T15:56:16.790Z,110.33
2018-03-06T15:58:43.368Z,101.57
2018-03-06T16:01:09.767Z,87.23
2018-03-06T16:03:36.093Z,65.43
2018-03-06T16:06:02.537Z,60.17
2018-03-06T16:08:29.009Z,66.40
2018-03-06T16:10:55.369Z,69.87
2018-03-06T16:13:21.745Z,92.13
2018-03-06T16:15:48.154Z,109.10
2018-03-06T16:18:14.542Z,109.33
2018-03-06T16:20:40.920Z,78.43
2018-03-06T16:23:07.330Z,107.27
2018-03-06T16:25:33.741Z,140.53
2018-03-06T16:28:00.202Z,152.60
2018-03-06T16:30:26.671Z,136.40
2018-03-06T16:32:53.045Z,136.17
2018-03-06T16:35:19.454Z,129.93
2018-03-06T16:37:45.878Z,133.47
2018-03-06T16:40:12.284Z,141.60
2018-03-06T16:42:38.665Z,145.53
2018-03-06T16:45:05.058Z,137.43
2018-03-06T16:47:31.435Z,138.17
2018-03-06T16:49:57.816Z,124.00
2018-03-06T16:52:24.221Z,117.13
2018-03-06T16:54:50.645Z,121.60
2018-03-06T16:57:17.041Z,122.50
2018-03-06T16:59:43.429Z,122.07
2018-03-06T17:02:09.831Z,116.27
2018-03-06T17:04:36.211Z,118.47
2018-03-06T17:07:02.687Z,130.53
2018-03-06T17:09:29.290Z,136.03
2018-03-06T17:11:55.646Z,141.93
2018-03-06T17:14:22.045Z,142.23
2018-03-06T17:16:48.437Z,149.73
2018-03-06T17:19:14.813Z,152.17
2018-03-06T17:21:41.239Z,147.70
2018-03-06T17:24:07.678Z,155.17
2018-03-06T17:26:34.142Z,152.47
2018-03-06T17:29:00.788Z,163.97
2018-03-06T17:31:27.177Z,166.17
2018-03-06T17:33:53.619Z,203.50
2018-03-06T17:36:20.031Z,195.33
2018-03-06T17:38:46.357Z,188.60
2018-03-06T17:41:12.762Z,199.67
2018-03-06T17:43:39.140Z,197.63
2018-03-06T17:46:05.506Z,224.50
2018-03-06T17:48:32.041Z,212.27
2018-03-06T17:50:58.506Z,212.20
2018-03-06T17:53:24.888Z,215.13
2018-03-06T17:55:51.317Z,230.23
2018-03-06T17:58:17.693Z,234.07
2018-03-06T18:00:44.193Z,232.80
2018-03-06T18:03:10.935Z,238.17
2018-03-06T18:05:37.402Z,265.87
2018-03-06T18:08:03.887Z,266.80
2018-03-06T18:10:30.418Z,292.57
2018-03-06T18:12:56.786Z,297.50
2018-03-06T18:15:23.166Z,261.57
2018-03-06T18:17:49.557Z,270.03
2018-03-06T18:20:15.930Z,265.83
2018-03-06T18:22:42.537Z,274.23
2018-03-06T18:25:08.994Z,257.23
2018-03-06T18:27:36.198Z,270.43
2018-03-06T18:30:04.596Z,265.20
2018-03-06T18:32:30.989Z,265.03
2018-03-06T18:34:57.470Z,275.23
2018-03-06T18:37:24.025Z,289.33
2018-03-06T18:39:50.517Z,275.40
2018-03-06T18:42:16.897Z,281.07
2018-03-06T18:44:43.686Z,299.93
2018-03-06T18:47:10.254Z,296.23
2018-03-06T18:49:36.746Z,299.90
2018-03-06T18:52:03.194Z,297.57
2018-03-06T18:54:29.605Z,275.93
2018-03-06T18:56:55.986Z,271.60
2018-03-06T18:59:22.397Z,267.33
2018-03-06T19:15:12.421Z,177.57
2018-03-06T19:17:38.858Z,168.63
2018-03-06T19:20:05.301Z,173.23
2018-03-06T19:22:31.776Z,154.07
2018-03-06T19:24:58.172Z,161.47
2018-03-06T19:27:24.602Z,152.90
2018-03-06T19:29:51.045Z,148.07
2018-03-06T19:32:17.409Z,125.87
2018-03-06T19:34:43.833Z,110.37
2018-03-06T19:37:10.213Z,101.27
2018-03-06T19:39:36.789Z,96.33
2018-03-06T19:42:03.213Z,98.63
2018-03-06T19:44:29.732Z,99.83
2018-03-06T19:46:56.497Z,90.90
2018-03-06T19:49:22.992Z,94.87
2018-03-06T19:51:49.368Z,98.40
2018-03-06T19:54:15.758Z,93.33
2018-03-06T19:56:42.152Z,96.53
2018-03-06T19:59:08.601Z,108.63
2018-03-06T20:01:35.054Z,108.80
2018-03-06T20:04:01.490Z,111.30
2018-03-06T20:06:27.921Z,124.87
2018-03-06T20:08:54.418Z,131.57
2018-03-06T20:11:20.849Z,126.37
2018-03-06T20:13:47.244Z,134.23
2018-03-06T20:16:13.749Z,149.47
2018-03-06T20:18:40.236Z,127.07
2018-03-06T20:21:06.869Z,123.83
2018-03-06T20:23:33.361Z,127.50
2018-03-06T20:25:59.785Z,130.93
2018-03-06T20:28:26.280Z,123.70
2018-03-06T20:30:59.038Z,120.77
2018-03-06T20:33:25.469Z,122.43
2018-03-06T20:35:51.821Z,117.27
2018-03-06T20:38:24.238Z,120.23
2018-03-06T20:40:50.661Z,134.07
2018-03-06T20:43:17.076Z,144.10
2018-03-06T20:45:49.526Z,142.20
2018-03-06T20:48:15.932Z,140.60
2018-03-06T20:50:42.302Z,156.77
2018-03-06T20:53:14.889Z,152.10
2018-03-06T20:55:41.250Z,152.03
2018-03-06T20:58:07.682Z,152.53
2018-03-06T21:00:34.063Z,151.30
2018-03-06T21:03:00.504Z,167.80
2018-03-06T21:05:26.869Z,167.43
2018-03-06T21:07:53.353Z,158.80
2018-03-06T21:10:19.774Z,154.90
2018-03-06T21:12:46.181Z,143.70
2018-03-06T21:15:12.641Z,146.43
2018-03-06T21:17:39.072Z,136.10
2018-03-06T21:20:05.538Z,138.30
2018-03-06T21:22:31.991Z,140.13
2018-03-06T21:24:58.403Z,133.10
2018-03-06T21:27:24.858Z,133.27
2018-03-06T21:29:51.229Z,112.10
2018-03-06T21:32:17.622Z,116.30
2018-03-06T21:34:44.012Z,142.33
2018-03-06T21:37:10.386Z,146.47
2018-03-06T21:39:36.985Z,150.10
2018-03-06T21:42:03.494Z,152.00
2018-03-06T21:44:29.874Z,152.53
2018-03-06T21:46:56.297Z,157.37
2018-03-06T21:49:22.896Z,155.73
2018-03-06T21:51:49.389Z,149.67
2018-03-06T21:54:15.893Z,128.80
2018-03-06T21:56:42.266Z,127.17
2018-03-06T21:59:08.646Z,121.90
2018-03-06T22:01:34.989Z,108.17
2018-03-06T22:04:01.441Z,110.33
2018-03-06T22:06:27.839Z,106.40
2018-03-06T22:08:54.331Z,98.97
2018-03-06T22:11:20.855Z,99.90
2018-03-06T22:13:47.278Z,101.77
2018-03-06T22:16:13.665Z,87.67
2018-03-06T22:18:40.058Z,89.47
2018-03-06T22:21:06.441Z,97.50
2018-03-06T22:23:32.889Z,90.07
2018-03-06T22:25:59.369Z,94.80
2018-03-06T22:28:25.843Z,89.63
2018-03-06T22:30:52.210Z,92.93
2018-03-06T22:33:18.602Z,97.70
2018-03-06T22:35:44.962Z,103.93
2018-03-06T22:38:11.374Z,102.93
2018-03-06T22:40:37.724Z,104.13
2018-03-06T22:43:04.153Z,116.57
2018-03-06T22:45:30.621Z,108.70
2018-03-06T22:47:57.068Z,110.17
2018-03-06T22:50:23.478Z,115.60
2018-03-06T22:52:49.905Z,114.63
2018-03-06T22:55:16.293Z,122.77
2018-03-06T22:57:42.804Z,123.27
2018-03-06T23:00:09.237Z,123.57
2018-03-06T23:02:35.637Z,116.90
2018-03-06T23:05:02.103Z,94.33
2018-03-06T23:07:28.489Z,78.93
2018-03-06T23:09:54.897Z,67.20
2018-03-06T23:12:21.301Z,60.90
2018-03-06T23:14:47.679Z,60.73
2018-03-06T23:17:14.038Z,55.03
2018-03-06T23:19:40.466Z,57.67
2018-03-06T23:22:06.862Z,51.80
2018-03-06T23:24:33.294Z,56.30
2018-03-06T23:26:59.649Z,56.70
2018-03-06T23:29:26.009Z,58.57
2018-03-06T23:31:52.394Z,52.20
2018-03-06T23:34:18.753Z,58.63
2018-03-06T23:36:45.110Z,54.77
2018-03-06T23:39:11.477Z,57.83
2018-03-06T23:41:37.861Z,48.87
2018-03-06T23:44:04.226Z,50.47
2018-03-06T23:46:30.577Z,52.37
2018-03-06T23:48:56.929Z,51.73
2018-03-06T23:51:23.353Z,53.27
2018-03-06T23:53:49.721Z,52.90
2018-03-06T23:56:16.115Z,54.30
2018-03-06T23:58:42.466Z,49.93
